Terminal Aerodrome Forecast
Issued by NWS

Home | Current Version | Previous Version | Text Only | Print | Product List | Glossary On
Versions: 1 2 3 4 5 6 7 8 9 10 11 12 13 14 15 16
000
FTUS42 TJSJ 261305 AAA
TAFKPK
TAF AMD
TKPK 261305Z 2613/2712 06008KT P6SM SCT018
      TEMPO 2613/2614 BKN018
     FM261400 09010KT P6SM SCT018
     FM262200 06010KT P6SM SCT020
      AMD NOT SKED 2702/2711=

USA.gov is the U.S. government's official web portal to all federal, state and local government web resources and services.